Skip Navigation LinksHome page > Weather > Current weather Skip Navigation Links

Current Weather

Tracy Muni, Tracy, Calif.

For information only: do not use for flight planning or navigation.
Latest weather
Observation time Monday, November 29, 2021 1:55 PM PST
Local time Monday, November 29, 2021 2:05 PM PST
Flight conditions Visual Meteorological Conditions
Winds
Wind direction variable
Wind speed 6 mph
Visibility 9 mi.
Present weather AUTO
Sky condition
Ceiling unlimited
Sky clear
Temperature 66°F
Dewpoint 50°F
Altimeter 30.13 in.Hg
Derived measurements
Relative humidity 56%
Density altitude 599 ft.
Remarks
Fully automated report.
METAR KTCY 292155Z AUTO VRB05KT 9SM CLR 19/10 A3013 RMK A01

Settings

Location code

InnerDrive.Weather 4.0.6770.0 Release CLR 4.0.30319.42000
Copyright ©2018 Inner Drive Technology. All rights reserved. Portions Copyright ©1986-2018 David Braverman.

Find weather

Site navigation


Skip Navigation Links

Place info

Page info

PayPal - The safer, easier way to pay online!

Return home.

Copyright ©2021 Inner Drive Technology. Purveyors of fine, hand-crafted computer software. Page printed 2021-11-29T22:05:32 UTC.